createdAt,value
2017-07-28T00:02:26.858Z,16.50
2017-07-28T00:04:55.074Z,16.50
2017-07-28T00:07:22.486Z,16.60
2017-07-28T00:09:49.911Z,16.50
2017-07-28T00:12:17.330Z,16.50
2017-07-28T00:14:44.742Z,16.50
2017-07-28T00:17:12.161Z,16.40
2017-07-28T00:19:39.570Z,16.30
2017-07-28T00:22:07.758Z,16.20
2017-07-28T00:24:35.165Z,16.20
2017-07-28T00:27:02.580Z,16.20
2017-07-28T00:29:30.547Z,16.10
2017-07-28T00:31:57.963Z,16.10
2017-07-28T00:34:25.901Z,16.10
2017-07-28T00:36:53.325Z,16.10
2017-07-28T00:39:20.732Z,16.00
2017-07-28T00:41:48.154Z,16.00
2017-07-28T00:44:15.570Z,16.00
2017-07-28T00:46:44.662Z,15.90
2017-07-28T00:49:12.078Z,15.90
2017-07-28T00:51:39.508Z,15.90
2017-07-28T00:54:06.909Z,15.80
2017-07-28T00:56:34.343Z,15.80
2017-07-28T00:59:01.754Z,15.80
2017-07-28T01:01:29.155Z,15.80
2017-07-28T01:03:56.591Z,15.70
2017-07-28T01:06:23.987Z,15.70
2017-07-28T01:08:51.401Z,15.60
2017-07-28T01:11:18.813Z,15.70
2017-07-28T01:13:46.221Z,15.60
2017-07-28T01:16:13.896Z,15.50
2017-07-28T01:18:41.308Z,15.50
2017-07-28T01:21:08.722Z,15.50
2017-07-28T01:23:36.146Z,15.40
2017-07-28T01:26:03.545Z,15.40
2017-07-28T01:28:30.971Z,15.30
2017-07-28T01:30:58.382Z,15.20
2017-07-28T01:33:26.556Z,15.10
2017-07-28T01:35:53.962Z,15.10
2017-07-28T01:38:21.385Z,15.00
2017-07-28T01:40:48.797Z,14.90
2017-07-28T01:43:17.365Z,14.90
2017-07-28T01:45:44.805Z,14.80
2017-07-28T01:48:12.242Z,14.70
2017-07-28T01:50:39.642Z,14.60
2017-07-28T01:53:08.843Z,14.60
2017-07-28T01:55:36.253Z,14.50
2017-07-28T01:58:03.660Z,14.50
2017-07-28T02:00:31.394Z,14.50
2017-07-28T02:02:58.802Z,14.50
2017-07-28T02:05:26.979Z,14.40
2017-07-28T02:07:55.154Z,14.30
2017-07-28T02:10:23.337Z,14.30
2017-07-28T02:12:51.110Z,14.30
2017-07-28T02:15:18.513Z,14.20
2017-07-28T02:17:45.929Z,14.20
2017-07-28T02:20:13.346Z,14.20
2017-07-28T02:22:40.759Z,14.10
2017-07-28T02:25:08.708Z,14.10
2017-07-28T02:27:36.104Z,14.00
2017-07-28T02:30:03.544Z,14.00
2017-07-28T02:32:30.945Z,14.00
2017-07-28T02:34:59.130Z,13.90
2017-07-28T02:37:26.541Z,13.90
2017-07-28T02:39:55.810Z,13.90
2017-07-28T02:42:23.221Z,13.90
2017-07-28T02:44:50.645Z,13.80
2017-07-28T02:47:18.049Z,13.80
2017-07-28T02:49:46.221Z,13.80
2017-07-28T02:52:13.633Z,13.70
2017-07-28T02:54:41.045Z,13.70
2017-07-28T02:57:08.465Z,13.70
2017-07-28T02:59:35.873Z,13.60
2017-07-28T03:02:04.289Z,13.70
2017-07-28T03:04:31.705Z,13.60
2017-07-28T03:07:00.019Z,13.60
2017-07-28T03:09:27.426Z,13.50
2017-07-28T03:11:54.847Z,13.40
2017-07-28T03:14:22.257Z,13.40
2017-07-28T03:16:49.672Z,13.30
2017-07-28T03:19:17.069Z,13.40
2017-07-28T03:21:44.485Z,13.40
2017-07-28T03:24:12.657Z,13.30
2017-07-28T03:26:40.842Z,13.20
2017-07-28T03:29:09.022Z,13.20
2017-07-28T03:31:36.433Z,13.20
2017-07-28T03:34:03.848Z,13.20
2017-07-28T03:36:31.273Z,13.20
2017-07-28T03:38:58.687Z,13.20
2017-07-28T03:41:26.086Z,13.20
2017-07-28T03:43:54.274Z,13.20
2017-07-28T03:46:21.682Z,13.20
2017-07-28T03:48:49.097Z,13.20
2017-07-28T03:51:16.513Z,13.10
2017-07-28T03:53:43.921Z,13.10
2017-07-28T03:56:11.333Z,13.10
2017-07-28T03:58:38.752Z,13.10
2017-07-28T04:01:06.152Z,13.10
2017-07-28T04:03:34.337Z,13.10
2017-07-28T04:06:01.753Z,13.10
2017-07-28T04:08:29.951Z,13.10
2017-07-28T04:10:57.355Z,13.10
2017-07-28T04:16:28.942Z,13.10
2017-07-28T04:18:56.357Z,13.10
2017-07-28T04:21:24.534Z,13.20
2017-07-28T04:23:51.949Z,13.10
2017-07-28T04:26:19.365Z,13.20
2017-07-28T04:28:46.782Z,13.30
2017-07-28T04:31:14.961Z,13.40
2017-07-28T04:33:42.374Z,13.50
2017-07-28T04:36:09.774Z,13.50
2017-07-28T04:38:37.956Z,13.60
2017-07-28T04:41:06.380Z,13.60
2017-07-28T04:43:33.787Z,13.60
2017-07-28T04:46:01.238Z,13.70
2017-07-28T04:48:28.650Z,13.80
2017-07-28T04:50:56.099Z,13.90
2017-07-28T04:53:23.506Z,14.00
2017-07-28T04:55:51.686Z,14.30
2017-07-28T04:58:19.873Z,14.50
2017-07-28T05:00:47.288Z,14.50
2017-07-28T05:03:14.701Z,14.60
2017-07-28T05:05:42.105Z,14.70
2017-07-28T05:08:09.510Z,14.80
2017-07-28T05:10:36.921Z,14.80
2017-07-28T05:13:28.862Z,15.10
2017-07-28T05:15:57.579Z,15.30
2017-07-28T05:18:24.981Z,15.40
2017-07-28T05:20:52.397Z,15.30
2017-07-28T05:23:19.798Z,15.40
2017-07-28T05:25:47.228Z,15.60
2017-07-28T05:28:14.633Z,15.80
2017-07-28T05:30:42.054Z,15.90
2017-07-28T05:33:09.462Z,16.00
2017-07-28T05:35:36.878Z,16.10
2017-07-28T05:38:04.298Z,16.40
2017-07-28T05:40:31.714Z,16.50
2017-07-28T05:42:59.129Z,16.60
2017-07-28T05:45:26.530Z,16.80
2017-07-28T05:47:53.945Z,17.00
2017-07-28T05:50:21.384Z,17.10
2017-07-28T05:52:48.782Z,17.30
2017-07-28T05:55:16.194Z,17.60
2017-07-28T05:57:43.609Z,17.70
2017-07-28T06:00:11.785Z,17.90
2017-07-28T06:02:39.970Z,18.10
2017-07-28T06:05:07.377Z,18.10
2017-07-28T06:07:34.802Z,18.20
2017-07-28T06:10:02.205Z,18.50
2017-07-28T06:12:30.021Z,18.80
2017-07-28T06:14:57.425Z,18.80
2017-07-28T06:17:25.481Z,19.00
2017-07-28T06:19:52.893Z,19.10
2017-07-28T06:28:28.001Z,20.10
2017-07-28T06:30:55.401Z,20.20
2017-07-28T06:33:24.693Z,20.20
2017-07-28T06:35:52.098Z,20.10
2017-07-28T06:38:19.518Z,20.20
2017-07-28T06:40:47.685Z,20.60
2017-07-28T06:43:15.864Z,20.70
2017-07-28T06:45:44.417Z,20.70
2017-07-28T06:48:11.839Z,20.70
2017-07-28T06:50:39.237Z,20.70
2017-07-28T06:53:06.660Z,20.50
2017-07-28T06:55:34.068Z,20.50
2017-07-28T06:58:02.249Z,20.80
2017-07-28T07:00:30.437Z,21.00
2017-07-28T07:02:57.845Z,20.90
2017-07-28T07:05:25.253Z,21.30
2017-07-28T07:07:52.674Z,21.90
2017-07-28T07:10:20.089Z,22.10
2017-07-28T07:12:49.281Z,21.90
2017-07-28T07:15:16.670Z,21.70
2017-07-28T07:17:44.094Z,21.40
2017-07-28T07:20:11.497Z,21.60
2017-07-28T07:22:39.669Z,22.30
2017-07-28T07:25:07.081Z,22.30
2017-07-28T07:27:35.190Z,22.60
2017-07-28T07:30:02.616Z,22.10
2017-07-28T07:32:30.008Z,21.70
2017-07-28T07:34:58.194Z,22.20
2017-07-28T07:37:26.361Z,22.30
2017-07-28T07:39:54.545Z,22.60
2017-07-28T07:42:22.723Z,22.30
2017-07-28T07:44:50.904Z,22.60
2017-07-28T07:47:18.313Z,22.60
2017-07-28T07:49:45.727Z,22.70
2017-07-28T07:52:13.125Z,23.00
2017-07-28T07:54:40.897Z,22.80
2017-07-28T07:57:08.306Z,22.50
2017-07-28T07:59:35.730Z,22.20
2017-07-28T08:02:03.133Z,21.80
2017-07-28T08:04:30.553Z,21.40
2017-07-28T08:06:57.961Z,21.70
2017-07-28T08:09:25.400Z,22.10
2017-07-28T08:11:52.806Z,23.00
2017-07-28T08:14:20.981Z,24.10
2017-07-28T08:16:49.166Z,24.80
2017-07-28T08:19:17.701Z,24.80
2017-07-28T08:21:45.907Z,24.80
2017-07-28T08:24:13.337Z,24.50
2017-07-28T08:26:40.746Z,24.20
2017-07-28T08:29:08.157Z,24.00
2017-07-28T08:31:35.572Z,23.70
2017-07-28T08:34:03.208Z,23.70
2017-07-28T08:36:31.369Z,23.80
2017-07-28T08:38:59.552Z,22.60
2017-07-28T08:41:27.745Z,21.60
2017-07-28T08:43:55.149Z,21.60
2017-07-28T08:46:22.577Z,21.00
2017-07-28T08:48:49.982Z,21.10
2017-07-28T08:51:17.405Z,21.10
2017-07-28T08:53:44.817Z,21.40
2017-07-28T08:56:12.238Z,22.20
2017-07-28T08:58:39.656Z,22.60
2017-07-28T09:01:07.070Z,22.80
2017-07-28T09:03:35.241Z,23.80
2017-07-28T09:06:04.090Z,23.80
2017-07-28T09:08:31.506Z,23.80
2017-07-28T09:10:58.909Z,23.70
2017-07-28T09:13:26.325Z,24.00
2017-07-28T09:15:53.739Z,23.80
2017-07-28T09:18:21.162Z,23.10
2017-07-28T09:20:48.571Z,22.40
2017-07-28T09:23:16.758Z,22.10
2017-07-28T09:25:44.165Z,22.10
2017-07-28T09:28:11.580Z,22.20
2017-07-28T09:30:39.409Z,22.10
2017-07-28T09:33:06.830Z,22.10
2017-07-28T09:35:34.241Z,22.40
2017-07-28T09:38:01.654Z,22.20
2017-07-28T09:40:29.069Z,22.40
2017-07-28T09:42:56.477Z,22.30
2017-07-28T09:45:24.911Z,22.50
2017-07-28T09:47:52.332Z,22.90
2017-07-28T09:50:19.730Z,23.40
2017-07-28T09:52:47.149Z,23.50
2017-07-28T09:55:15.325Z,24.00
2017-07-28T09:57:43.518Z,24.90
2017-07-28T10:00:10.917Z,24.80
2017-07-28T10:02:38.334Z,24.70
2017-07-28T10:05:05.745Z,24.10
2017-07-28T10:07:33.157Z,23.60
2017-07-28T10:10:01.110Z,23.20
2017-07-28T10:12:28.517Z,23.00
2017-07-28T10:14:56.050Z,23.10
2017-07-28T10:17:23.437Z,23.10
2017-07-28T10:19:50.845Z,22.80
2017-07-28T10:22:18.261Z,22.80
2017-07-28T10:24:45.677Z,23.40
2017-07-28T10:27:14.542Z,23.80
2017-07-28T10:29:42.717Z,23.90
2017-07-28T10:32:10.137Z,23.70
2017-07-28T10:34:37.549Z,23.30
2017-07-28T10:37:04.953Z,22.60
2017-07-28T10:39:33.641Z,22.40
2017-07-28T10:42:01.809Z,22.60
2017-07-28T10:44:29.993Z,22.50
2017-07-28T10:46:58.173Z,22.50
2017-07-28T10:49:26.341Z,22.60
2017-07-28T10:51:54.517Z,22.50
2017-07-28T10:54:22.701Z,22.70
2017-07-28T10:56:50.109Z,22.70
2017-07-28T10:59:17.525Z,23.30
2017-07-28T11:01:45.665Z,24.00
2017-07-28T11:04:13.838Z,23.30
2017-07-28T11:06:42.017Z,23.10
2017-07-28T11:09:10.827Z,22.60
2017-07-28T11:11:39.261Z,22.60
2017-07-28T11:14:06.672Z,22.20
2017-07-28T11:16:34.085Z,22.40
2017-07-28T11:19:01.496Z,22.60
2017-07-28T11:21:28.905Z,23.30
2017-07-28T11:23:57.085Z,24.30
2017-07-28T11:26:24.497Z,24.20
2017-07-28T11:28:51.901Z,24.60
2017-07-28T11:31:20.081Z,24.40
2017-07-28T11:33:48.258Z,24.60
2017-07-28T11:36:15.692Z,24.60
2017-07-28T11:38:43.093Z,24.60
2017-07-28T11:41:10.513Z,24.20
2017-07-28T11:43:39.213Z,23.80
2017-07-28T11:46:06.633Z,23.70
2017-07-28T11:48:34.041Z,23.90
2017-07-28T11:51:02.057Z,24.00
2017-07-28T11:53:29.465Z,24.00
2017-07-28T11:55:56.900Z,24.00
2017-07-28T11:58:24.547Z,24.40
2017-07-28T12:00:51.937Z,25.20
2017-07-28T12:03:19.349Z,25.90
2017-07-28T12:05:46.751Z,26.30
2017-07-28T12:08:14.169Z,26.40
2017-07-28T12:10:42.352Z,26.20
2017-07-28T12:13:09.761Z,26.10
2017-07-28T12:15:38.121Z,26.60
2017-07-28T12:18:05.538Z,26.60
2017-07-28T12:20:33.709Z,26.30
2017-07-28T12:23:01.897Z,26.10
2017-07-28T12:25:29.312Z,26.10
2017-07-28T12:27:56.725Z,26.20
2017-07-28T12:30:24.130Z,26.50
2017-07-28T12:32:51.541Z,26.70
2017-07-28T12:35:18.957Z,26.20
2017-07-28T12:37:46.381Z,26.40
2017-07-28T12:40:13.786Z,26.20
2017-07-28T12:42:41.203Z,25.60
2017-07-28T12:45:08.600Z,24.90
2017-07-28T12:47:36.434Z,25.00
2017-07-28T12:50:03.846Z,25.40
2017-07-28T12:52:31.266Z,25.50
2017-07-28T12:54:58.679Z,25.80
2017-07-28T12:57:26.236Z,25.70
2017-07-28T12:59:53.622Z,25.70
2017-07-28T13:02:21.036Z,25.70
2017-07-28T13:04:48.442Z,25.50
2017-07-28T13:07:16.616Z,25.70
2017-07-28T13:09:44.033Z,25.70
2017-07-28T13:12:11.449Z,25.30
2017-07-28T13:14:38.861Z,25.50
2017-07-28T13:17:06.265Z,25.80
2017-07-28T13:19:34.603Z,25.70
2017-07-28T13:22:02.016Z,25.50
2017-07-28T13:24:29.422Z,25.30
2017-07-28T13:26:57.361Z,25.60
2017-07-28T13:29:24.773Z,25.70
2017-07-28T13:31:52.585Z,25.60
2017-07-28T13:34:19.996Z,25.70
2017-07-28T13:36:47.397Z,25.80
2017-07-28T13:39:14.808Z,25.50
2017-07-28T13:41:43.058Z,25.50
2017-07-28T13:44:10.466Z,25.70
2017-07-28T13:46:43.485Z,25.90
2017-07-28T13:49:10.893Z,25.90
2017-07-28T13:51:38.346Z,25.70
2017-07-28T13:54:05.750Z,25.50
2017-07-28T13:56:33.164Z,25.30
2017-07-28T13:59:00.574Z,24.80
2017-07-28T14:01:27.995Z,24.40
2017-07-28T14:03:55.404Z,24.00
2017-07-28T14:06:23.581Z,24.00
2017-07-28T14:08:51.760Z,24.10
2017-07-28T14:11:19.177Z,24.10
2017-07-28T14:13:46.589Z,24.00
2017-07-28T14:16:14.002Z,24.20
2017-07-28T14:18:42.092Z,24.70
2017-07-28T14:21:11.141Z,25.60
2017-07-28T14:23:38.537Z,25.60
2017-07-28T14:26:06.720Z,26.00
2017-07-28T14:28:35.838Z,25.70
2017-07-28T14:31:03.254Z,25.70
2017-07-28T14:33:30.673Z,25.50
2017-07-28T14:35:58.857Z,25.00
2017-07-28T14:38:26.269Z,24.60
2017-07-28T14:40:53.689Z,24.30
2017-07-28T14:43:21.100Z,23.60
2017-07-28T14:45:48.502Z,23.40
2017-07-28T14:48:15.923Z,23.00
2017-07-28T14:50:43.327Z,22.90
2017-07-28T14:53:11.512Z,22.70
2017-07-28T14:55:39.681Z,22.80
2017-07-28T14:58:07.857Z,22.70
2017-07-28T15:00:36.027Z,22.70
2017-07-28T15:03:04.217Z,22.70
2017-07-28T15:05:31.617Z,22.70
2017-07-28T15:07:59.033Z,22.50
2017-07-28T15:10:26.443Z,22.30
2017-07-28T15:12:53.871Z,22.30
2017-07-28T15:15:22.018Z,22.30
2017-07-28T15:17:49.433Z,22.20
2017-07-28T15:20:16.838Z,22.10
2017-07-28T15:22:44.248Z,22.00
2017-07-28T15:25:11.675Z,21.90
2017-07-28T15:27:39.658Z,22.00
2017-07-28T15:30:07.746Z,22.00
2017-07-28T15:32:35.862Z,22.20
2017-07-28T15:35:03.270Z,22.50
2017-07-28T15:37:30.677Z,22.70
2017-07-28T15:39:58.085Z,23.10
2017-07-28T15:42:25.504Z,23.00
2017-07-28T15:44:52.914Z,23.00
2017-07-28T15:47:21.085Z,22.90
2017-07-28T15:49:49.269Z,22.80
2017-07-28T15:52:16.683Z,22.80
2017-07-28T15:54:44.105Z,22.80
2017-07-28T15:57:11.509Z,22.80
2017-07-28T15:59:38.917Z,23.20
2017-07-28T16:02:06.324Z,23.80
2017-07-28T16:04:34.517Z,23.90
2017-07-28T16:07:02.684Z,23.30
2017-07-28T16:09:30.872Z,23.30
2017-07-28T16:11:59.045Z,23.40
2017-07-28T16:14:26.464Z,23.40
2017-07-28T16:16:54.285Z,24.00
2017-07-28T16:19:27.429Z,24.10
2017-07-28T16:21:54.841Z,24.10
2017-07-28T16:24:22.261Z,23.70
2017-07-28T16:26:50.442Z,23.30
2017-07-28T16:29:19.078Z,23.30
2017-07-28T16:31:46.477Z,23.30
2017-07-28T16:34:14.681Z,23.50
2017-07-28T16:36:42.101Z,23.50
2017-07-28T16:39:10.273Z,23.30
2017-07-28T16:41:38.502Z,23.10
2017-07-28T16:44:05.901Z,23.00
2017-07-28T16:46:34.092Z,23.00
2017-07-28T16:49:02.257Z,23.00
2017-07-28T16:51:30.448Z,23.10
2017-07-28T16:53:57.858Z,23.10
2017-07-28T16:56:25.266Z,23.00
2017-07-28T16:58:52.673Z,23.00
2017-07-28T17:01:20.086Z,23.00
2017-07-28T17:03:47.492Z,23.00
2017-07-28T17:06:14.910Z,23.10
2017-07-28T17:08:42.315Z,22.80
2017-07-28T17:11:09.730Z,22.90
2017-07-28T17:13:37.134Z,22.70
2017-07-28T17:16:06.398Z,22.40
2017-07-28T17:18:34.600Z,22.40
2017-07-28T17:21:02.781Z,22.30
2017-07-28T17:23:30.966Z,22.30
2017-07-28T17:25:59.143Z,22.30
2017-07-28T17:28:26.556Z,22.20
2017-07-28T17:30:53.984Z,22.20
2017-07-28T17:33:22.086Z,22.20
2017-07-28T17:35:49.496Z,22.30
2017-07-28T17:38:16.908Z,22.20
2017-07-28T17:40:44.324Z,22.10
2017-07-28T17:43:11.733Z,22.10
2017-07-28T17:45:39.960Z,22.00
2017-07-28T17:48:07.356Z,22.00
2017-07-28T17:50:34.761Z,22.00
2017-07-28T17:53:02.433Z,21.90
2017-07-28T17:55:30.404Z,21.80
2017-07-28T17:57:57.805Z,21.80
2017-07-28T18:00:25.982Z,21.70
2017-07-28T18:02:54.174Z,21.60
2017-07-28T18:05:22.350Z,21.50
2017-07-28T18:07:49.761Z,21.50
2017-07-28T18:10:17.940Z,21.50
2017-07-28T18:12:45.359Z,21.30
2017-07-28T18:15:12.761Z,21.00
2017-07-28T18:17:40.177Z,20.80
2017-07-28T18:20:07.590Z,20.60
2017-07-28T18:22:35.778Z,20.60
2017-07-28T18:25:03.193Z,20.50
2017-07-28T18:27:30.601Z,20.40
2017-07-28T18:29:58.016Z,20.40
2017-07-28T18:32:25.420Z,20.40
2017-07-28T18:34:52.829Z,20.50
2017-07-28T18:37:43.571Z,20.60
2017-07-28T18:40:10.975Z,20.40
2017-07-28T18:42:38.389Z,20.20
2017-07-28T18:45:05.814Z,20.00
2017-07-28T18:47:33.985Z,19.80
2017-07-28T18:50:02.169Z,19.60
2017-07-28T18:52:29.576Z,19.50
2017-07-28T18:54:56.995Z,19.30
2017-07-28T18:57:24.393Z,19.20
2017-07-28T18:59:51.810Z,19.00
2017-07-28T19:02:19.220Z,18.90
2017-07-28T19:04:46.645Z,18.80
2017-07-28T19:07:14.073Z,18.70
2017-07-28T19:09:41.502Z,18.70
2017-07-28T19:12:08.903Z,18.80
2017-07-28T19:14:36.373Z,18.80
2017-07-28T19:17:03.789Z,18.80
2017-07-28T19:19:31.973Z,18.80
2017-07-28T19:21:59.386Z,18.70
2017-07-28T19:24:26.821Z,18.70
2017-07-28T19:26:54.267Z,18.70
2017-07-28T19:29:21.683Z,18.60
2017-07-28T19:31:49.879Z,18.70
2017-07-28T19:34:17.345Z,18.70
2017-07-28T19:36:56.130Z,18.80
2017-07-28T19:39:24.350Z,19.00
2017-07-28T19:41:51.799Z,19.00
2017-07-28T19:44:19.208Z,19.10
2017-07-28T19:46:46.625Z,19.10
2017-07-28T19:49:14.033Z,19.10
2017-07-28T19:51:42.213Z,19.10
2017-07-28T19:54:09.626Z,19.00
2017-07-28T19:56:39.905Z,19.00
2017-07-28T19:59:38.932Z,19.00
2017-07-28T20:02:07.653Z,18.90
2017-07-28T20:04:35.048Z,18.80
2017-07-28T20:07:02.461Z,18.80
2017-07-28T20:09:29.871Z,18.80
2017-07-28T20:11:57.961Z,18.80
2017-07-28T20:14:25.377Z,18.70
2017-07-28T20:16:52.791Z,18.70
2017-07-28T20:19:20.978Z,18.70
2017-07-28T20:21:48.597Z,18.70
2017-07-28T20:24:16.018Z,18.60
2017-07-28T20:26:43.426Z,18.60
2017-07-28T20:29:10.841Z,18.50
2017-07-28T20:31:38.252Z,18.50
2017-07-28T20:34:05.657Z,18.50
2017-07-28T20:36:33.075Z,18.50
2017-07-28T20:39:00.477Z,18.50
2017-07-28T20:41:27.898Z,18.50
2017-07-28T20:43:56.065Z,18.40
2017-07-28T20:46:23.477Z,18.30
2017-07-28T20:48:50.897Z,18.30
2017-07-28T20:51:18.305Z,18.30
2017-07-28T20:53:45.721Z,18.30
2017-07-28T20:56:13.137Z,18.30
2017-07-28T20:58:40.552Z,18.30
2017-07-28T21:01:07.954Z,18.30
2017-07-28T21:03:35.371Z,18.30
2017-07-28T21:06:02.780Z,18.30
2017-07-28T21:08:30.198Z,18.40
2017-07-28T21:10:57.637Z,18.50
2017-07-28T21:13:25.033Z,18.50
2017-07-28T21:15:52.442Z,18.50
2017-07-28T21:18:19.869Z,18.50
2017-07-28T21:20:47.274Z,18.60
2017-07-28T21:23:14.684Z,18.70
2017-07-28T21:25:42.105Z,18.70
2017-07-28T21:28:09.521Z,18.60
2017-07-28T21:30:36.928Z,18.50
2017-07-28T21:33:05.109Z,18.30
2017-07-28T21:35:33.290Z,18.30
2017-07-28T21:38:00.698Z,18.30
2017-07-28T21:40:28.956Z,18.20
2017-07-28T21:42:56.354Z,18.10
2017-07-28T21:45:24.301Z,18.10
2017-07-28T21:47:51.709Z,18.00
2017-07-28T21:50:19.126Z,18.10
2017-07-28T21:52:46.533Z,18.20
2017-07-28T21:55:13.949Z,18.20
2017-07-28T21:57:41.362Z,18.20
2017-07-28T22:00:08.777Z,18.20
2017-07-28T22:02:36.182Z,18.10
2017-07-28T22:05:03.593Z,18.10
2017-07-28T22:07:30.997Z,18.10
2017-07-28T22:09:59.189Z,17.90
2017-07-28T22:12:26.597Z,17.80
2017-07-28T22:14:54.018Z,17.70
2017-07-28T22:17:21.417Z,17.60
2017-07-28T22:19:48.833Z,17.60
2017-07-28T22:22:16.240Z,17.50
2017-07-28T22:24:43.667Z,17.40
2017-07-28T22:27:11.067Z,17.30
2017-07-28T22:29:38.508Z,17.40
2017-07-28T22:32:05.909Z,17.50
2017-07-28T22:34:33.326Z,17.60
2017-07-28T22:37:01.533Z,17.60
2017-07-28T22:39:29.721Z,17.70
2017-07-28T22:41:57.134Z,17.70
2017-07-28T22:44:24.545Z,17.70
2017-07-28T22:46:51.962Z,17.70
2017-07-28T22:49:19.366Z,17.70
2017-07-28T22:51:46.782Z,17.70
2017-07-28T22:54:14.978Z,17.70
2017-07-28T22:56:43.170Z,17.80
2017-07-28T22:59:10.582Z,17.80
2017-07-28T23:01:37.996Z,17.90
2017-07-28T23:04:05.409Z,17.90
2017-07-28T23:06:33.325Z,18.00
2017-07-28T23:09:00.730Z,18.00
2017-07-28T23:11:28.152Z,18.00
2017-07-28T23:13:55.558Z,18.00
2017-07-28T23:16:23.742Z,18.00
2017-07-28T23:18:51.153Z,18.00
2017-07-28T23:21:18.564Z,18.00
2017-07-28T23:23:45.965Z,17.90
2017-07-28T23:26:13.372Z,17.90
2017-07-28T23:28:41.713Z,17.90
2017-07-28T23:31:09.123Z,17.90
2017-07-28T23:33:36.529Z,17.80
2017-07-28T23:36:03.939Z,17.70
2017-07-28T23:38:31.362Z,17.70
2017-07-28T23:40:59.204Z,17.70
2017-07-28T23:43:26.625Z,17.60
2017-07-28T23:45:54.029Z,17.60
2017-07-28T23:48:22.216Z,17.60
2017-07-28T23:50:49.620Z,17.60
2017-07-28T23:53:17.033Z,17.60
2017-07-28T23:55:44.561Z,17.60
2017-07-28T23:58:12.747Z,17.70
